Nottely Observed Data For Previous 48 Hours

Caption
Day and Hour Reservoir Elevation (behind dam)* Tailwater Elevation (below dam)* Average Hourly Discharge*
1/18/2018 2 AM EST 1,760.96 1,607.87 62
1/18/2018 3 AM EST 1,760.96 1,607.87 61
1/18/2018 4 AM EST 1,760.97 1,607.86 62
1/18/2018 5 AM EST 1,760.97 1,607.87 61
1/18/2018 6 AM EST 1,760.98 1,607.86 62
1/18/2018 7 AM EST 1,760.95 1,611.43 1,024
1/18/2018 8 AM EST 1,760.93 1,611.45 1,433
1/18/2018 9 AM EST 1,760.88 1,611.47 1,433
1/18/2018 10 AM EST 1,760.87 1,607.90 879
1/18/2018 11 AM EST 1,760.86 1,607.86 61
1/18/2018 12 PM EST 1,760.87 1,607.90 62
1/18/2018 1 PM EST 1,760.88 1,607.86 62
1/18/2018 2 PM EST 1,760.88 1,607.85 61
1/18/2018 3 PM EST 1,760.89 1,607.87 62
1/18/2018 4 PM EST 1,760.90 1,607.87 62
1/18/2018 5 PM EST 1,760.90 1,607.85 62
1/18/2018 6 PM EST 1,760.91 1,607.85 62
1/18/2018 7 PM EST 1,760.92 1,607.85 62
1/18/2018 8 PM EST 1,760.92 1,611.08 171
1/18/2018 9 PM EST 1,760.90 1,611.45 1,423
1/18/2018 10 PM EST 1,760.86 1,611.45 1,426
1/18/2018 11 PM EST 1,760.83 1,611.42 1,421
1/19/2018 12 AM EST 1,760.83 1,607.81 174
1/19/2018 1 AM EST 1,760.84 1,607.81 62
1/19/2018 2 AM EST 1,760.84 1,607.81 62
1/19/2018 3 AM EST 1,760.86 1,607.84 62
1/19/2018 4 AM EST 1,760.86 1,607.82 62
1/19/2018 5 AM EST 1,760.87 1,607.83 62
1/19/2018 6 AM EST 1,760.86 1,610.79 163
1/19/2018 7 AM EST 1,760.83 1,611.43 1,429
1/19/2018 8 AM EST 1,760.80 1,611.47 1,431
1/19/2018 9 AM EST 1,760.77 1,611.44 1,430
1/19/2018 10 AM EST 1,760.74 1,611.44 1,424
1/19/2018 11 AM EST 1,760.74 1,607.83 192
1/19/2018 12 PM EST 1,760.74 1,607.80 63
1/19/2018 1 PM EST 1,760.74 1,607.81 62
1/19/2018 2 PM EST 1,760.75 1,607.81 62
1/19/2018 3 PM EST 1,760.75 1,607.80 62
1/19/2018 4 PM EST 1,760.76 1,607.78 62
1/19/2018 5 PM EST 1,760.76 1,607.81 62
1/19/2018 6 PM EST 1,760.77 1,607.81 62
1/19/2018 7 PM EST 1,760.78 1,607.81 62
1/19/2018 8 PM EST 1,760.77 1,611.21 202
1/19/2018 9 PM EST 1,760.76 1,611.47 1,446
1/19/2018 10 PM EST 1,760.71 1,611.51 1,448
1/19/2018 11 PM EST 1,760.72 1,607.87 208
1/20/2018 12 AM EST 1,760.72 1,607.88 199
1/20/2018 1 AM EST 1,760.72 1,607.87 62
1/20/2018 2 AM EST 1,760.73 1,607.86 62
1/20/2018 3 AM EST 1,760.74 1,607.87 62
1/20/2018 4 AM EST 1,760.74 1,607.87 62
1/20/2018 5 AM EST 1,760.75 1,607.88 62
1/20/2018 6 AM EST 1,760.75 1,607.86 62
1/20/2018 7 AM EST 1,760.76 1,607.85 63
1/20/2018 8 AM EST 1,760.76 1,607.85 62
1/20/2018 9 AM EST 1,760.76 1,607.85 62
1/20/2018 10 AM EST 1,760.78 1,607.83 62
1/20/2018 11 AM EST 1,760.77 1,607.84 62
1/20/2018 12 PM EST 1,760.78 1,607.84 62
1/20/2018 1 PM EST 1,760.78 1,607.84 62
1/20/2018 2 PM EST 1,760.79 1,607.85 62
1/20/2018 3 PM EST 1,760.79 1,607.85 62
1/20/2018 4 PM EST 1,760.80 1,607.82 63
1/20/2018 5 PM EST 1,760.80 1,607.81 62
1/20/2018 6 PM EST 1,760.81 1,607.82 63
1/20/2018 7 PM EST 1,760.82 1,607.82 63
1/20/2018 8 PM EST 1,760.82 1,607.81 62
1/20/2018 9 PM EST 1,760.83 1,607.80 62

Elevations are in feet above sea level. Discharges are in cubic feet per second and are reported at the end of the hour.